Time;durP1;ratioP1;P1;durP2;ratioP2;P2;SDS_P1;SDS_P2;PMS_P1;PMS_P2;Temp;Humidity;BMP_temperature;BMP_pressure;BME280_temperature;BME280_humidity;BME280_pressure;Samples;Min_cycle;Max_cycle;Signal;HPM_P1;HPM_P2
2023/05/22 00:00:25;;;;;;;5.20;4.70;;;21.60;81.30;;;;;;5095418;28;20472;-77
2023/05/22 00:02:52;;;;;;;4.83;3.67;;;21.60;81.30;;;;;;5094639;28;20559;-77
2023/05/22 00:05:23;;;;;;;4.40;4.10;;;21.60;81.50;;;;;;5094423;28;20977;-77
2023/05/22 00:07:50;;;;;;;3.60;3.30;;;21.60;81.30;;;;;;5095171;28;20461;-77
2023/05/22 00:10:17;;;;;;;4.93;3.80;;;21.60;81.50;;;;;;5094451;28;20449;-76
2023/05/22 00:12:44;;;;;;;7.30;4.87;;;21.60;82.10;;;;;;5094524;28;20466;-77
2023/05/22 00:15:12;;;;;;;4.67;4.27;;;21.60;81.40;;;;;;5094281;28;20807;-77
2023/05/22 00:17:39;;;;;;;6.13;3.97;;;21.50;81.40;;;;;;5094849;28;20522;-78
2023/05/22 00:20:09;;;;;;;4.63;4.23;;;21.50;81.70;;;;;;5094399;28;20523;-77
2023/05/22 00:22:38;;;;;;;4.67;4.27;;;21.50;81.60;;;;;;5094746;28;20465;-76
2023/05/22 00:25:06;;;;;;;4.67;4.10;;;21.50;81.50;;;;;;5093567;28;20531;-76
2023/05/22 00:27:33;;;;;;;4.43;4.03;;;21.50;81.60;;;;;;5095522;28;20465;-76
2023/05/22 00:30:01;;;;;;;6.00;4.40;;;21.50;81.50;;;;;;5094321;28;20477;-76
2023/05/22 00:32:28;;;;;;;5.90;3.97;;;21.40;81.60;;;;;;5094743;28;20527;-77
2023/05/22 00:34:55;;;;;;;5.93;3.60;;;21.40;81.70;;;;;;5093924;28;20489;-77
2023/05/22 00:37:22;;;;;;;4.40;4.07;;;21.40;81.70;;;;;;5094781;28;20518;-78
2023/05/22 00:39:51;;;;;;;3.93;3.53;;;21.40;81.60;;;;;;5094658;28;20540;-76
2023/05/22 00:42:18;;;;;;;4.47;3.93;;;21.30;81.60;;;;;;5093256;28;20453;-76
2023/05/22 00:44:47;;;;;;;8.80;4.50;;;21.30;81.70;;;;;;5094871;28;20469;-77
2023/05/22 00:47:14;;;;;;;5.57;3.87;;;21.30;81.70;;;;;;5093422;28;20495;-76
2023/05/22 00:49:41;;;;;;;4.37;3.97;;;21.20;81.50;;;;;;5093569;28;20465;-76
2023/05/22 00:52:09;;;;;;;4.87;4.33;;;21.30;81.50;;;;;;5093765;28;20810;-76
2023/05/22 00:54:37;;;;;;;4.90;3.77;;;21.20;81.30;;;;;;5092213;28;20501;-76
2023/05/22 00:57:05;;;;;;;4.30;3.87;;;21.30;81.40;;;;;;5089022;28;20461;-77
2023/05/22 00:59:33;;;;;;;3.60;3.30;;;21.20;81.30;;;;;;5094098;28;20992;-76
2023/05/22 01:02:00;;;;;;;6.90;4.30;;;21.20;81.30;;;;;;5093517;28;20476;-77
2023/05/22 01:04:27;;;;;;;5.53;4.10;;;21.20;81.50;;;;;;5093775;28;21006;-76
2023/05/22 01:06:55;;;;;;;4.47;3.57;;;21.10;81.30;;;;;;5092690;28;20488;-76
2023/05/22 01:09:22;;;;;;;5.03;4.10;;;21.10;81.10;;;;;;5092906;28;20943;-77
2023/05/22 01:11:57;;;;;;;4.93;4.50;;;21.10;80.90;;;;;;5094081;28;20510;-76
2023/05/22 01:14:40;;;;;;;7.53;5.00;;;21.10;80.90;;;;;;5093556;28;20457;-77
2023/05/22 01:17:21;;;;;;;3.73;3.43;;;21.00;80.70;;;;;;5093337;28;20523;-76
2023/05/22 01:20:06;;;;;;;4.43;4.03;;;21.00;80.80;;;;;;5093381;28;20552;-76
2023/05/22 01:23:01;;;;;;;4.57;4.17;;;21.00;80.80;;;;;;5093651;28;20457;-75
2023/05/22 01:25:53;;;;;;;5.90;5.30;;;21.00;80.90;;;;;;5092728;28;20864;-76
2023/05/22 01:28:41;;;;;;;3.70;3.40;;;21.00;80.70;;;;;;5093822;28;20469;-76
2023/05/22 01:31:13;;;;;;;3.90;3.60;;;20.90;80.80;;;;;;5093610;28;20519;-75
2023/05/22 01:33:45;;;;;;;3.90;3.50;;;20.90;80.90;;;;;;5093315;28;20465;-75
2023/05/22 01:36:14;;;;;;;4.63;4.23;;;20.90;81.10;;;;;;5093233;28;20775;-74
2023/05/22 01:38:42;;;;;;;6.30;4.07;;;20.90;81.20;;;;;;5093143;28;20548;-74
2023/05/22 01:41:10;;;;;;;5.40;3.73;;;20.80;80.90;;;;;;5093353;28;20492;-74
2023/05/22 01:43:38;;;;;;;4.27;3.93;;;20.80;80.90;;;;;;5092632;28;20518;-75
2023/05/22 01:46:06;;;;;;;3.80;3.37;;;20.80;81.00;;;;;;5093021;28;20481;-75
2023/05/22 01:48:35;;;;;;;8.10;3.90;;;20.80;81.10;;;;;;5092854;28;20534;-75
2023/05/22 01:51:07;;;;;;;4.80;4.33;;;20.80;81.40;;;;;;5093212;28;20465;-75
2023/05/22 01:53:41;;;;;;;4.80;4.27;;;20.70;81.60;;;;;;5093082;28;20527;-75
2023/05/22 01:56:14;;;;;;;4.40;4.00;;;20.70;81.80;;;;;;5091337;28;20948;-75
2023/05/22 01:58:48;;;;;;;5.50;4.10;;;20.70;82.90;;;;;;5093080;28;20586;-74
2023/05/22 02:01:19;;;;;;;5.40;4.23;;;20.70;82.40;;;;;;5092914;28;20564;-75
2023/05/22 02:03:55;;;;;;;4.70;4.30;;;20.60;82.50;;;;;;5093216;28;20481;-74
2023/05/22 02:06:23;;;;;;;5.63;4.30;;;20.60;82.60;;;;;;5093032;28;20959;-75
2023/05/22 02:08:51;;;;;;;5.90;3.70;;;20.60;82.80;;;;;;5093319;28;20465;-75
2023/05/22 02:11:21;;;;;;;5.40;4.10;;;20.60;82.90;;;;;;5093003;28;20466;-76
2023/05/22 02:13:49;;;;;;;4.23;3.83;;;20.60;82.90;;;;;;5092997;28;20453;-76
2023/05/22 02:16:16;;;;;;;5.73;3.80;;;20.50;83.00;;;;;;5093246;28;20469;-76
2023/05/22 02:18:44;;;;;;;5.50;4.90;;;20.50;83.20;;;;;;5092444;28;20532;-76
2023/05/22 02:21:12;;;;;;;4.70;4.10;;;20.50;83.30;;;;;;5093386;28;20550;-76
2023/05/22 02:23:39;;;;;;;4.27;3.97;;;20.40;83.20;;;;;;5092979;28;20469;-76
2023/05/22 02:26:07;;;;;;;3.87;3.57;;;20.40;83.30;;;;;;5093231;28;20472;-77
2023/05/22 02:28:34;;;;;;;3.63;3.33;;;20.40;83.40;;;;;;5092897;28;21022;-76
2023/05/22 02:31:02;;;;;;;5.17;4.57;;;20.30;83.40;;;;;;5093396;28;20473;-76
2023/05/22 02:33:29;;;;;;;5.60;4.40;;;20.20;83.50;;;;;;5093225;28;20587;-76
2023/05/22 02:35:56;;;;;;;7.07;4.90;;;20.10;83.40;;;;;;5093201;28;20779;-76
2023/05/22 02:38:24;;;;;;;5.77;4.90;;;20.10;83.90;;;;;;5097319;28;20469;-76
2023/05/22 02:40:51;;;;;;;7.33;4.23;;;20.00;84.00;;;;;;5096928;28;20481;-76
2023/05/22 02:43:18;;;;;;;4.87;4.47;;;20.00;84.10;;;;;;5097194;28;20523;-76
2023/05/22 02:45:45;;;;;;;6.43;5.30;;;20.00;84.10;;;;;;5096483;28;20477;-77
2023/05/22 02:48:12;;;;;;;4.40;4.03;;;19.90;84.10;;;;;;5097231;28;20530;-76
2023/05/22 02:50:39;;;;;;;7.63;4.23;;;19.90;84.10;;;;;;5096153;28;20461;-76
2023/05/22 02:53:07;;;;;;;4.77;4.37;;;19.90;84.20;;;;;;5096022;28;20532;-76
2023/05/22 02:55:35;;;;;;;4.30;3.93;;;19.90;84.40;;;;;;5096104;28;20509;-75
2023/05/22 02:58:02;;;;;;;3.80;3.50;;;19.90;84.40;;;;;;5096768;28;20515;-76
2023/05/22 03:00:30;;;;;;;5.07;4.57;;;19.90;84.40;;;;;;5096090;28;20461;-76
2023/05/22 03:02:57;;;;;;;4.83;4.40;;;19.80;84.50;;;;;;5096641;28;20797;-76
2023/05/22 03:05:24;;;;;;;5.13;4.63;;;19.80;84.50;;;;;;5096568;28;20469;-76
2023/05/22 03:07:51;;;;;;;6.90;5.17;;;19.70;84.40;;;;;;5095934;28;20457;-76
2023/05/22 03:10:18;;;;;;;5.10;4.70;;;19.70;84.90;;;;;;5096407;28;20469;-76
2023/05/22 03:12:47;;;;;;;6.27;4.17;;;19.70;85.10;;;;;;5095860;28;20476;-76
2023/05/22 03:15:14;;;;;;;4.97;4.57;;;19.60;85.00;;;;;;5096330;28;20590;-76
2023/05/22 03:17:41;;;;;;;4.60;4.30;;;19.50;85.20;;;;;;5095467;28;20465;-76
2023/05/22 03:20:09;;;;;;;4.70;4.30;;;19.50;85.50;;;;;;5096200;28;20469;-76
2023/05/22 03:22:37;;;;;;;6.23;4.43;;;19.50;85.60;;;;;;5077527;28;20860;-76
2023/05/22 03:25:08;;;;;;;4.20;3.90;;;19.50;85.80;;;;;;5095758;28;20985;-76
2023/05/22 03:27:35;;;;;;;5.20;4.70;;;19.50;85.90;;;;;;5095602;28;20471;-76
2023/05/22 03:30:08;;;;;;;4.63;4.13;;;19.50;86.00;;;;;;5095868;28;20495;-76
2023/05/22 03:32:36;;;;;;;6.10;4.30;;;19.50;86.00;;;;;;5095585;28;20465;-76
2023/05/22 03:35:04;;;;;;;5.87;4.03;;;19.40;86.10;;;;;;5095623;28;20465;-76
2023/05/22 03:37:32;;;;;;;4.33;4.03;;;19.40;86.20;;;;;;5095147;28;20497;-76
2023/05/22 03:39:59;;;;;;;4.23;3.93;;;19.40;86.70;;;;;;5095965;28;20453;-76
2023/05/22 03:42:26;;;;;;;4.70;4.30;;;19.40;86.50;;;;;;5095508;28;20461;-76
2023/05/22 03:44:53;;;;;;;5.03;4.60;;;19.40;86.60;;;;;;5094486;28;20761;-75
2023/05/22 03:47:21;;;;;;;5.63;5.00;;;19.40;86.70;;;;;;5095422;28;20466;-76
2023/05/22 03:49:48;;;;;;;5.23;4.77;;;19.40;86.90;;;;;;5094658;28;20481;-77
2023/05/22 03:52:15;;;;;;;5.23;4.70;;;19.40;87.00;;;;;;5095545;28;20526;-76
2023/05/22 03:54:42;;;;;;;7.50;4.90;;;19.30;87.10;;;;;;5094901;28;20825;-76
2023/05/22 03:57:09;;;;;;;5.73;4.37;;;19.30;87.10;;;;;;5095082;28;20488;-76
2023/05/22 03:59:36;;;;;;;4.57;4.17;;;19.30;87.20;;;;;;5095185;28;20472;-76
2023/05/22 04:02:04;;;;;;;6.83;4.50;;;19.30;87.50;;;;;;5095480;28;20748;-76
2023/05/22 04:04:37;;;;;;;5.03;4.60;;;19.30;87.50;;;;;;5095308;28;20465;-76
2023/05/22 04:07:07;;;;;;;4.60;4.20;;;19.40;87.60;;;;;;5094752;28;20460;-76
2023/05/22 04:09:35;;;;;;;7.37;4.17;;;19.40;87.60;;;;;;5095524;28;20792;-76
2023/05/22 04:12:04;;;;;;;4.83;4.33;;;19.40;87.70;;;;;;5094679;28;20539;-76
2023/05/22 04:14:31;;;;;;;5.00;4.50;;;19.40;87.80;;;;;;5095508;28;20497;-76
2023/05/22 04:16:59;;;;;;;8.40;5.00;;;19.50;88.00;;;;;;5094415;28;20465;-76
2023/05/22 04:19:26;;;;;;;6.07;4.07;;;19.50;88.10;;;;;;5094857;28;20472;-76
2023/05/22 04:21:55;;;;;;;6.00;4.60;;;19.50;88.10;;;;;;5084015;28;20481;-76
2023/05/22 04:24:28;;;;;;;4.40;4.00;;;19.50;88.20;;;;;;5094563;28;20477;-75
2023/05/22 04:27:01;;;;;;;5.40;4.20;;;19.50;88.20;;;;;;5083418;28;20462;-76
2023/05/22 04:29:28;;;;;;;5.17;4.77;;;19.50;88.20;;;;;;5093959;28;20532;-75
2023/05/22 04:31:55;;;;;;;5.60;4.80;;;19.60;88.20;;;;;;5094839;28;20470;-74
2023/05/22 04:34:22;;;;;;;7.60;5.90;;;19.60;88.40;;;;;;5094768;28;21031;-75
2023/05/22 04:36:50;;;;;;;5.83;5.33;;;19.60;88.50;;;;;;5094118;28;20556;-75
2023/05/22 04:39:18;;;;;;;4.83;4.33;;;19.60;88.60;;;;;;5095020;28;20450;-75
2023/05/22 04:41:45;;;;;;;5.63;5.10;;;19.60;88.70;;;;;;5094632;28;20465;-75
2023/05/22 04:44:13;;;;;;;7.97;5.40;;;19.60;88.80;;;;;;5093806;28;20834;-75
2023/05/22 04:46:40;;;;;;;7.50;4.27;;;19.70;88.90;;;;;;5094573;28;20462;-76
2023/05/22 04:49:07;;;;;;;5.60;4.80;;;19.70;89.00;;;;;;5094207;28;20469;-76
2023/05/22 04:51:34;;;;;;;5.27;4.57;;;19.70;88.90;;;;;;5094683;28;20792;-76
2023/05/22 04:54:01;;;;;;;6.90;5.30;;;19.70;89.00;;;;;;5094129;28;20477;-75
2023/05/22 04:56:30;;;;;;;7.23;4.33;;;19.80;88.90;;;;;;5092771;28;20841;-75
2023/05/22 04:58:58;;;;;;;7.73;5.20;;;19.80;89.10;;;;;;5083003;28;20477;-76
2023/05/22 05:01:26;;;;;;;6.63;4.67;;;19.80;89.10;;;;;;5093832;28;20469;-77
2023/05/22 05:03:53;;;;;;;5.27;4.80;;;19.80;89.10;;;;;;5094266;28;20523;-75
2023/05/22 05:06:20;;;;;;;5.17;4.67;;;19.90;89.10;;;;;;5092826;28;20465;-75
2023/05/22 05:08:48;;;;;;;5.70;3.93;;;20.00;89.10;;;;;;5093909;28;20552;-75
2023/05/22 05:11:15;;;;;;;5.43;4.30;;;20.00;89.10;;;;;;5093098;28;20469;-75
2023/05/22 05:13:43;;;;;;;7.13;4.90;;;20.00;88.80;;;;;;5093698;28;20466;-75
2023/05/22 05:16:10;;;;;;;5.10;4.13;;;20.10;88.80;;;;;;5093208;28;20790;-75
2023/05/22 05:18:37;;;;;;;5.63;4.30;;;20.00;88.70;;;;;;5093766;28;20804;-74
2023/05/22 05:21:05;;;;;;;5.13;4.00;;;20.10;88.90;;;;;;5092926;28;20465;-75
2023/05/22 05:23:32;;;;;;;4.90;4.40;;;20.10;88.90;;;;;;5093614;28;20481;-75
2023/05/22 05:25:59;;;;;;;5.77;5.17;;;20.20;89.00;;;;;;5092756;28;20469;-75
2023/05/22 05:28:26;;;;;;;9.63;5.20;;;20.20;89.20;;;;;;5093840;28;20523;-75
2023/05/22 05:30:54;;;;;;;6.63;4.40;;;20.20;89.30;;;;;;5093701;28;20534;-74
2023/05/22 05:33:21;;;;;;;5.33;4.80;;;20.20;89.30;;;;;;5093096;28;20753;-75
2023/05/22 05:35:49;;;;;;;5.03;4.53;;;20.20;89.20;;;;;;5093476;28;20473;-74
2023/05/22 05:38:17;;;;;;;5.37;4.87;;;20.20;89.30;;;;;;5092604;28;20543;-75
2023/05/22 05:40:44;;;;;;;9.10;5.20;;;20.20;89.50;;;;;;5093290;28;20557;-75
2023/05/22 05:43:13;;;;;;;5.40;4.90;;;20.20;89.60;;;;;;5093115;28;20501;-75
2023/05/22 05:45:40;;;;;;;7.37;5.10;;;20.20;89.60;;;;;;5093719;28;20461;-75
2023/05/22 05:48:10;;;;;;;5.17;4.70;;;20.10;89.50;;;;;;5092599;28;20668;-75
2023/05/22 05:50:37;;;;;;;6.13;5.13;;;20.20;90.00;;;;;;5093657;28;20828;-75
2023/05/22 05:53:05;;;;;;;5.73;5.07;;;20.20;89.90;;;;;;5092933;28;20476;-74
2023/05/22 05:55:31;;;;;;;7.00;4.50;;;20.20;89.90;;;;;;5093139;28;20461;-76
2023/05/22 05:57:58;;;;;;;5.90;5.10;;;20.30;90.00;;;;;;5093587;28;21069;-75
2023/05/22 06:00:26;;;;;;;5.40;4.97;;;20.30;90.10;;;;;;5093305;28;20937;-75
2023/05/22 06:02:53;;;;;;;5.80;5.30;;;20.40;90.00;;;;;;5093117;28;20469;-75
2023/05/22 06:05:22;;;;;;;7.63;6.10;;;20.40;90.10;;;;;;5092848;28;20469;-75
2023/05/22 06:07:49;;;;;;;6.63;5.57;;;20.50;90.10;;;;;;5093132;28;20480;-75
2023/05/22 06:10:16;;;;;;;9.87;5.17;;;20.50;90.00;;;;;;5082976;28;20476;-75
2023/05/22 06:12:43;;;;;;;6.67;4.50;;;20.60;90.00;;;;;;5081682;28;20970;-75
2023/05/22 06:15:11;;;;;;;6.37;5.70;;;20.70;90.10;;;;;;5091429;28;20567;-75
2023/05/22 06:17:39;;;;;;;7.17;4.70;;;20.80;90.10;;;;;;5092836;28;20469;-74
2023/05/22 06:20:07;;;;;;;7.37;4.90;;;20.90;90.20;;;;;;5092872;28;20464;-75
2023/05/22 06:22:36;;;;;;;10.03;6.13;;;21.00;90.00;;;;;;5093370;28;20793;-75
2023/05/22 06:25:04;;;;;;;6.27;5.70;;;21.00;89.70;;;;;;5092331;28;20819;-75
2023/05/22 06:27:31;;;;;;;6.33;4.73;;;21.00;89.50;;;;;;5091955;28;20461;-75
2023/05/22 06:29:59;;;;;;;8.03;5.80;;;21.10;89.70;;;;;;5092187;28;20493;-75
2023/05/22 06:32:26;;;;;;;6.10;5.60;;;21.10;89.80;;;;;;5091544;28;20461;-75
2023/05/22 06:34:53;;;;;;;11.90;5.00;;;21.20;89.90;;;;;;5092223;28;20469;-75
2023/05/22 06:37:20;;;;;;;5.70;5.20;;;21.30;89.70;;;;;;5091591;28;20969;-75
2023/05/22 06:39:48;;;;;;;6.47;5.70;;;21.40;89.70;;;;;;5091998;28;20465;-75
2023/05/22 06:42:18;;;;;;;7.63;5.63;;;21.50;89.60;;;;;;5091911;28;20523;-75
2023/05/22 06:44:45;;;;;;;6.23;5.10;;;21.60;89.60;;;;;;5091517;28;20469;-75
2023/05/22 06:47:12;;;;;;;6.17;5.60;;;21.70;89.60;;;;;;5091456;28;20498;-76
2023/05/22 06:49:39;;;;;;;5.93;5.33;;;21.80;89.10;;;;;;5091919;28;20485;-75
2023/05/22 06:52:06;;;;;;;5.87;5.27;;;21.80;88.90;;;;;;5092180;28;20898;-75
2023/05/22 06:54:33;;;;;;;6.47;5.00;;;21.90;89.00;;;;;;5091318;28;20540;-75
2023/05/22 06:57:02;;;;;;;9.37;5.90;;;22.00;89.30;;;;;;5091459;28;20506;-76
2023/05/22 06:59:30;;;;;;;6.00;4.70;;;22.10;89.00;;;;;;5091613;28;20959;-75
2023/05/22 07:01:57;;;;;;;5.33;5.00;;;22.20;89.00;;;;;;5092257;28;20874;-76
2023/05/22 07:04:24;;;;;;;8.47;6.13;;;22.30;88.70;;;;;;5091311;28;20955;-75
2023/05/22 07:06:52;;;;;;;6.27;5.77;;;22.40;88.70;;;;;;5092012;28;21031;-75
2023/05/22 07:09:20;;;;;;;5.90;5.40;;;22.50;88.70;;;;;;5091048;28;20479;-74
2023/05/22 07:11:47;;;;;;;8.70;6.00;;;22.60;88.70;;;;;;5091657;28;20492;-74
2023/05/22 07:14:15;;;;;;;6.30;5.80;;;22.80;89.10;;;;;;5091426;28;20479;-74
2023/05/22 07:16:42;;;;;;;7.80;4.97;;;22.90;88.80;;;;;;5091677;28;20915;-75
2023/05/22 07:19:10;;;;;;;10.00;6.53;;;23.00;88.30;;;;;;5091554;28;21028;-75
2023/05/22 07:21:37;;;;;;;5.43;4.97;;;23.10;87.80;;;;;;5090741;28;20485;-75
2023/05/22 07:24:07;;;;;;;9.47;6.00;;;23.30;87.60;;;;;;5093597;28;20482;-76
2023/05/22 07:26:35;;;;;;;7.50;5.27;;;23.40;87.20;;;;;;5094462;28;20930;-76
2023/05/22 07:29:07;;;;;;;6.50;5.90;;;23.40;86.90;;;;;;5095045;28;20467;-75
2023/05/22 07:31:37;;;;;;;8.50;5.80;;;23.40;87.20;;;;;;5083002;28;20462;-76
2023/05/22 07:34:04;;;;;;;6.23;5.63;;;23.40;87.30;;;;;;5094958;28;20992;-74
2023/05/22 07:36:33;;;;;;;8.10;5.53;;;23.50;88.20;;;;;;5094528;28;20531;-75
2023/05/22 07:39:00;;;;;;;8.63;6.83;;;23.50;87.50;;;;;;5095137;28;20465;-74
2023/05/22 07:41:27;;;;;;;7.77;6.93;;;23.50;87.90;;;;;;5094135;28;20486;-75
2023/05/22 07:44:12;;;;;;;10.97;7.07;;;23.60;87.60;;;;;;5092639;28;20469;-76
2023/05/22 07:46:40;;;;;;;12.63;6.40;;;23.60;87.10;;;;;;5094840;28;20472;-75
2023/05/22 07:49:07;;;;;;;6.00;5.50;;;23.60;87.60;;;;;;5095361;28;20465;-75
2023/05/22 07:51:34;;;;;;;6.33;5.77;;;23.80;87.50;;;;;;5094818;28;20473;-75
2023/05/22 07:54:02;;;;;;;6.53;5.93;;;24.00;87.10;;;;;;5094931;28;20461;-75
2023/05/22 07:56:29;;;;;;;7.77;5.40;;;24.10;86.90;;;;;;5094643;28;20473;-74
2023/05/22 07:58:56;;;;;;;8.23;5.87;;;24.30;86.30;;;;;;5095057;28;21069;-75
2023/05/22 08:01:23;;;;;;;7.47;5.70;;;24.30;85.70;;;;;;5095231;28;20771;-75
2023/05/22 08:03:51;;;;;;;7.13;5.93;;;24.30;84.90;;;;;;5094479;28;20454;-75
2023/05/22 08:06:18;;;;;;;13.83;5.97;;;24.50;85.20;;;;;;5095073;28;20514;-74
2023/05/22 08:08:45;;;;;;;5.53;5.07;;;24.50;84.70;;;;;;5094271;28;20487;-74
2023/05/22 08:11:12;;;;;;;5.63;5.13;;;24.60;84.10;;;;;;5094752;28;20527;-74
2023/05/22 08:13:39;;;;;;;5.83;5.33;;;24.60;83.80;;;;;;5094135;28;20465;-74
2023/05/22 08:16:07;;;;;;;8.13;5.80;;;24.70;83.40;;;;;;5094641;28;20480;-75
2023/05/22 08:18:34;;;;;;;5.60;5.10;;;24.70;83.20;;;;;;5094087;28;20943;-76
2023/05/22 08:21:02;;;;;;;6.13;5.60;;;24.80;83.20;;;;;;5094640;28;20480;-75
2023/05/22 08:23:29;;;;;;;5.83;5.30;;;24.80;83.20;;;;;;5083674;28;20477;-74
2023/05/22 08:25:56;;;;;;;5.40;4.90;;;24.90;83.50;;;;;;5094229;28;20461;-75
2023/05/22 08:28:23;;;;;;;6.70;5.43;;;25.00;83.50;;;;;;5094694;28;20549;-74
2023/05/22 08:30:54;;;;;;;8.23;5.10;;;25.10;83.20;;;;;;5093536;28;20980;-75
2023/05/22 08:33:21;;;;;;;8.53;6.27;;;25.10;82.00;;;;;;5094126;28;20480;-75
2023/05/22 08:35:53;;;;;;;8.30;6.43;;;25.10;82.10;;;;;;5092615;28;20477;-74
2023/05/22 08:38:22;;;;;;;5.67;4.23;;;25.10;82.00;;;;;;5093852;28;20469;-77
2023/05/22 08:40:49;;;;;;;4.80;4.40;;;25.20;81.80;;;;;;5093200;28;20504;-76
2023/05/22 08:43:16;;;;;;;7.63;4.67;;;25.20;81.50;;;;;;5093548;28;20479;-77
2023/05/22 08:45:44;;;;;;;5.27;4.67;;;25.20;81.00;;;;;;5093282;28;20469;-76
2023/05/22 08:48:13;;;;;;;5.50;4.80;;;25.10;81.10;;;;;;5093988;28;20461;-77
2023/05/22 08:50:43;;;;;;;8.53;4.97;;;25.00;81.20;;;;;;5093170;28;20505;-77
2023/05/22 08:53:13;;;;;;;5.63;4.37;;;25.00;81.20;;;;;;5093702;28;20523;-77
2023/05/22 08:55:42;;;;;;;10.93;5.47;;;25.00;81.50;;;;;;5092895;28;20492;-76
2023/05/22 08:58:11;;;;;;;6.27;4.80;;;25.10;81.20;;;;;;5092261;28;20476;-76
2023/05/22 09:00:38;;;;;;;7.37;5.77;;;25.20;81.00;;;;;;5093128;28;20477;-76
2023/05/22 09:03:08;;;;;;;5.70;5.30;;;25.20;80.60;;;;;;5093750;28;20469;-76
2023/05/22 09:05:35;;;;;;;8.80;4.97;;;25.20;80.40;;;;;;5093397;28;20560;-76
2023/05/22 09:08:03;;;;;;;6.10;4.87;;;25.20;80.40;;;;;;5093011;28;20456;-76
2023/05/22 09:10:30;;;;;;;5.53;5.03;;;25.20;80.70;;;;;;5093637;28;20552;-76
2023/05/22 09:13:03;;;;;;;6.77;5.27;;;25.20;80.80;;;;;;5093191;28;20462;-76
2023/05/22 09:15:31;;;;;;;4.60;4.20;;;25.20;80.90;;;;;;5093723;28;20493;-75
2023/05/22 09:17:58;;;;;;;4.73;4.33;;;25.20;80.70;;;;;;5092679;28;23719;-76
2023/05/22 09:20:26;;;;;;;6.07;4.47;;;25.30;80.80;;;;;;5092964;28;20493;-75
2023/05/22 09:22:53;;;;;;;7.80;4.53;;;25.40;80.00;;;;;;5092543;28;20462;-76
2023/05/22 09:25:23;;;;;;;7.13;4.70;;;25.30;80.10;;;;;;5095215;28;20470;-76
2023/05/22 09:27:51;;;;;;;8.03;5.07;;;25.30;79.60;;;;;;5095500;28;20963;-76
2023/05/22 09:30:28;;;;;;;6.87;4.70;;;25.40;79.70;;;;;;5093530;28;20480;-75
2023/05/22 09:32:55;;;;;;;6.80;5.03;;;25.40;79.40;;;;;;5092604;28;20803;-76
2023/05/22 09:35:29;;;;;;;6.47;4.77;;;25.50;79.20;;;;;;5092866;28;20527;-75
2023/05/22 09:37:57;;;;;;;5.70;4.73;;;25.40;79.00;;;;;;5091911;28;20560;-76
2023/05/22 09:40:24;;;;;;;10.63;4.50;;;25.40;78.70;;;;;;5092540;28;20470;-76
2023/05/22 09:42:51;;;;;;;6.60;5.93;;;25.40;79.00;;;;;;5092475;28;20465;-76
2023/05/22 09:45:23;;;;;;;5.63;4.97;;;25.30;79.10;;;;;;5092571;28;20477;-76
2023/05/22 09:47:50;;;;;;;4.70;4.30;;;25.30;79.20;;;;;;5091593;28;20473;-75
2023/05/22 09:50:17;;;;;;;6.57;4.93;;;25.20;79.30;;;;;;5092990;28;20572;-76
2023/05/22 09:52:46;;;;;;;8.83;6.30;;;25.20;79.30;;;;;;5092544;28;20544;-75
2023/05/22 09:55:14;;;;;;;4.80;4.43;;;25.20;79.70;;;;;;5092769;28;20474;-76
2023/05/22 09:57:43;;;;;;;5.87;4.97;;;25.20;79.30;;;;;;5093141;28;20480;-76
2023/05/22 10:00:17;;;;;;;6.97;5.70;;;25.20;79.40;;;;;;5092616;28;20493;-76
2023/05/22 10:02:47;;;;;;;6.30;3.73;;;25.20;79.70;;;;;;5092731;28;20508;-76
2023/05/22 10:05:20;;;;;;;5.37;4.10;;;25.20;79.00;;;;;;5091474;28;20935;-76
2023/05/22 10:07:49;;;;;;;4.80;4.40;;;25.30;79.30;;;;;;5093558;28;20493;-76
2023/05/22 10:10:18;;;;;;;7.03;3.87;;;25.30;79.30;;;;;;5092817;28;20450;-76
2023/05/22 10:12:52;;;;;;;6.37;4.67;;;25.30;79.30;;;;;;5092986;28;20953;-76
2023/05/22 10:15:20;;;;;;;4.50;4.10;;;25.30;79.30;;;;;;5092988;28;21338;-76
2023/05/22 10:17:50;;;;;;;8.77;5.17;;;25.40;79.40;;;;;;5092558;28;20465;-76
2023/05/22 10:20:17;;;;;;;8.30;5.10;;;25.40;79.30;;;;;;5092843;28;20768;-75
2023/05/22 10:22:47;;;;;;;4.77;3.53;;;25.30;78.70;;;;;;5093089;28;20493;-75
2023/05/22 10:25:17;;;;;;;4.77;4.37;;;25.40;78.70;;;;;;5092309;28;20982;-75
2023/05/22 10:27:44;;;;;;;6.23;4.33;;;25.40;78.00;;;;;;5092829;28;20477;-76
2023/05/22 10:30:20;;;;;;;4.40;4.00;;;25.40;78.10;;;;;;5092275;28;20465;-76
2023/05/22 10:32:53;;;;;;;6.00;4.43;;;25.50;78.20;;;;;;5092883;28;20473;-77
2023/05/22 10:35:25;;;;;;;5.80;5.20;;;25.50;77.70;;;;;;5092405;28;20461;-77
2023/05/22 10:37:55;;;;;;;5.43;4.93;;;25.60;78.20;;;;;;5092777;28;20530;-76
2023/05/22 10:40:29;;;;;;;5.83;4.30;;;25.60;78.20;;;;;;5092811;28;20521;-75
2023/05/22 10:43:00;;;;;;;4.97;4.30;;;25.60;77.20;;;;;;5093581;28;20465;-76
2023/05/22 10:45:28;;;;;;;4.97;4.50;;;25.60;77.10;;;;;;5091340;28;20474;-76
2023/05/22 10:48:08;;;;;;;5.17;4.27;;;25.60;76.90;;;;;;5092792;28;20465;-76
2023/05/22 10:50:36;;;;;;;7.43;4.13;;;25.60;76.50;;;;;;5092395;28;20473;-76
2023/05/22 10:53:23;;;;;;;8.10;5.07;;;25.60;76.50;;;;;;5092895;28;20504;-76
2023/05/22 10:55:50;;;;;;;5.23;4.00;;;25.60;76.70;;;;;;5093271;28;20518;-76
2023/05/22 10:58:18;;;;;;;5.37;4.90;;;25.60;75.50;;;;;;5094708;28;20489;-76
2023/05/22 11:00:45;;;;;;;5.73;4.10;;;25.70;75.10;;;;;;5096511;28;20519;-76
2023/05/22 11:03:15;;;;;;;5.10;4.33;;;25.70;75.20;;;;;;5088436;28;20465;-76
2023/05/22 11:05:42;;;;;;;6.73;4.67;;;25.70;75.00;;;;;;5096245;28;20515;-77
2023/05/22 11:08:27;;;;;;;16.73;4.57;;;25.70;75.10;;;;;;5095148;28;21024;-76
2023/05/22 11:10:57;;;;;;;4.57;4.10;;;25.70;74.00;;;;;;5095557;28;20461;-76
2023/05/22 11:13:30;;;;;;;6.33;4.10;;;25.70;74.50;;;;;;5096734;28;20784;-75
2023/05/22 11:15:58;;;;;;;7.53;3.87;;;25.80;74.20;;;;;;5095726;28;20522;-76
2023/05/22 11:18:29;;;;;;;4.87;4.37;;;25.70;73.40;;;;;;5095760;28;20469;-76
2023/05/22 11:20:59;;;;;;;6.63;4.87;;;25.80;73.80;;;;;;5096141;28;20465;-76
2023/05/22 11:23:26;;;;;;;5.23;3.70;;;25.80;72.70;;;;;;5095628;28;20465;-76
2023/05/22 11:25:53;;;;;;;5.37;3.47;;;25.80;71.60;;;;;;5092966;28;20465;-75
2023/05/22 11:28:22;;;;;;;7.90;4.30;;;25.80;71.10;;;;;;5095815;28;20453;-75
2023/05/22 11:30:51;;;;;;;5.30;3.60;;;25.80;70.70;;;;;;5078640;28;20467;-76
2023/05/22 11:33:18;;;;;;;4.60;4.20;;;25.70;70.50;;;;;;5077854;28;20455;-76
2023/05/22 11:35:48;;;;;;;5.03;4.53;;;25.70;70.00;;;;;;5097081;28;20977;-76
2023/05/22 11:38:15;;;;;;;4.20;3.80;;;25.70;69.80;;;;;;5095701;28;20480;-76
2023/05/22 11:40:44;;;;;;;4.37;3.77;;;25.60;69.90;;;;;;5096019;28;20480;-76
2023/05/22 11:43:11;;;;;;;7.13;3.20;;;25.60;69.00;;;;;;5082212;28;20527;-76
2023/05/22 11:45:40;;;;;;;4.30;3.90;;;25.60;69.30;;;;;;5075836;28;20901;-76
2023/05/22 11:48:08;;;;;;;5.50;4.23;;;25.60;68.30;;;;;;5074967;28;20971;-76
2023/05/22 11:50:35;;;;;;;4.30;3.50;;;25.60;67.40;;;;;;5089308;28;20457;-76
2023/05/22 11:53:04;;;;;;;6.57;4.10;;;25.60;66.50;;;;;;5089677;28;20629;-76
2023/05/22 11:55:33;;;;;;;8.13;3.70;;;25.70;67.00;;;;;;5079132;28;20473;-76
2023/05/22 11:58:01;;;;;;;6.37;3.90;;;25.70;66.50;;;;;;5097864;28;20548;-77
2023/05/22 12:00:29;;;;;;;6.30;3.70;;;25.60;67.10;;;;;;5090090;28;20549;-76
2023/05/22 12:02:56;;;;;;;5.00;4.47;;;25.60;66.70;;;;;;5090125;28;20588;-76
2023/05/22 12:05:23;;;;;;;4.87;4.33;;;25.70;66.60;;;;;;5094011;28;20558;-76
2023/05/22 12:07:53;;;;;;;8.53;4.50;;;25.70;66.00;;;;;;5095668;28;20522;-75
2023/05/22 12:10:21;;;;;;;3.60;3.30;;;25.80;65.70;;;;;;5093825;28;20563;-75
2023/05/22 12:12:49;;;;;;;5.70;3.90;;;25.80;65.80;;;;;;5096217;28;20461;-76
2023/05/22 12:15:20;;;;;;;3.93;3.53;;;25.80;64.70;;;;;;5095516;28;20910;-75
2023/05/22 12:17:47;;;;;;;7.00;4.20;;;25.90;64.20;;;;;;5095341;28;20480;-76
2023/05/22 12:20:14;;;;;;;4.00;3.40;;;25.90;64.10;;;;;;5095053;28;20466;-74
2023/05/22 12:22:42;;;;;;;5.13;3.80;;;26.00;64.00;;;;;;5095605;28;20477;-75
2023/05/22 12:25:14;;;;;;;5.10;4.27;;;26.00;63.60;;;;;;5095319;28;20470;-76
2023/05/22 12:27:44;;;;;;;4.73;4.10;;;26.00;63.40;;;;;;5097244;28;20463;-76
2023/05/22 12:30:14;;;;;;;3.43;3.10;;;26.00;63.10;;;;;;5095942;28;20500;-75
2023/05/22 12:32:40;;;;;;;4.40;4.00;;;26.10;63.40;;;;;;5095816;28;20527;-75
2023/05/22 12:35:15;;;;;;;4.10;3.70;;;26.10;63.40;;;;;;5094757;28;20462;-76
2023/05/22 12:37:48;;;;;;;5.30;4.03;;;26.10;62.80;;;;;;5097863;28;20469;-77
2023/05/22 12:40:15;;;;;;;5.60;3.87;;;26.10;61.90;;;;;;5095674;28;20469;-77
2023/05/22 12:42:44;;;;;;;3.73;3.43;;;26.10;60.80;;;;;;5096533;28;20472;-76
2023/05/22 12:45:12;;;;;;;8.20;3.33;;;26.20;60.70;;;;;;5099629;28;20476;-76
2023/05/22 12:47:39;;;;;;;4.97;3.80;;;26.20;60.50;;;;;;5096199;28;20472;-76
2023/05/22 12:50:08;;;;;;;8.90;4.10;;;26.20;59.90;;;;;;5094893;28;20552;-76
2023/05/22 12:52:35;;;;;;;3.70;3.40;;;26.20;60.50;;;;;;5094249;28;20529;-76